createdAt,value
2019-05-22T04:32:29.198Z,9.18
2019-05-22T04:37:31.272Z,8.88
2019-05-22T04:42:35.040Z,8.73
2019-05-22T04:47:40.263Z,7.20
2019-05-22T04:52:45.148Z,8.33
2019-05-22T04:57:49.921Z,8.60
2019-05-22T05:02:54.015Z,9.13
2019-05-22T05:07:59.304Z,8.75
2019-05-22T05:13:03.670Z,10.03
2019-05-22T05:18:07.850Z,10.05
2019-05-22T05:23:13.673Z,10.40
2019-05-22T05:28:20.543Z,11.90
2019-05-22T05:33:27.825Z,11.28
2019-05-22T05:38:37.521Z,13.43
2019-05-22T05:43:42.034Z,12.70
2019-05-22T05:48:49.311Z,13.48
2019-05-22T05:54:04.356Z,13.05
2019-05-22T05:59:12.899Z,13.85
2019-05-22T06:04:33.966Z,13.55
2019-05-22T06:09:30.483Z,13.80
2019-05-22T06:14:37.452Z,14.53
2019-05-22T06:19:45.910Z,14.00
2019-05-22T06:25:03.110Z,13.50
2019-05-22T06:30:12.533Z,9.43
2019-05-22T06:35:17.209Z,10.03
2019-05-22T06:40:22.946Z,8.40
2019-05-22T06:45:28.606Z,7.42
2019-05-22T06:50:32.543Z,5.45
2019-05-22T06:55:36.409Z,6.65
2019-05-22T07:00:40.596Z,6.75
2019-05-22T07:05:46.656Z,7.17
2019-05-22T07:10:50.996Z,6.95
2019-05-22T07:15:55.633Z,6.87
2019-05-22T07:21:01.170Z,6.05
2019-05-22T07:26:06.630Z,4.60
2019-05-22T07:31:12.113Z,2.98
2019-05-22T07:36:17.210Z,3.85
2019-05-22T07:41:21.952Z,4.17
2019-05-22T07:46:30.818Z,3.12
2019-05-22T07:51:33.613Z,3.95
2019-05-22T07:56:40.630Z,3.27
2019-05-22T08:01:47.356Z,3.55
2019-05-22T08:06:54.646Z,2.98
2019-05-22T08:12:00.261Z,2.95
2019-05-22T08:17:07.540Z,2.20
2019-05-22T08:22:11.770Z,2.27
2019-05-22T08:27:17.978Z,3.65
2019-05-22T08:32:23.620Z,4.25
2019-05-22T08:37:30.650Z,2.87
2019-05-22T08:42:35.622Z,3.58
2019-05-22T08:47:40.274Z,2.80
2019-05-22T08:52:45.359Z,3.33
2019-05-22T08:57:49.867Z,3.05
2019-05-22T09:02:56.161Z,2.67
2019-05-22T09:08:00.319Z,3.25
2019-05-22T09:13:10.765Z,2.62
2019-05-22T09:18:16.721Z,3.15
2019-05-22T09:23:22.417Z,3.00
2019-05-22T09:28:28.413Z,3.60
2019-05-22T09:33:35.977Z,3.15
2019-05-22T09:38:40.553Z,2.90
2019-05-22T09:43:48.698Z,2.83
2019-05-22T09:54:04.013Z,2.52
2019-05-22T09:59:11.323Z,2.83
2019-05-22T10:04:16.055Z,3.20
2019-05-22T10:09:20.197Z,2.30
2019-05-22T10:14:27.985Z,2.05
2019-05-22T10:19:32.065Z,2.50
2019-05-22T10:24:39.443Z,2.08
2019-05-22T10:29:43.544Z,2.00
2019-05-22T10:34:50.029Z,1.92
2019-05-22T10:39:57.806Z,2.60
2019-05-22T10:45:06.588Z,2.43
2019-05-22T10:50:13.706Z,1.95
2019-05-22T10:55:20.069Z,1.98
2019-05-22T11:00:27.676Z,2.52
2019-05-22T11:05:33.746Z,2.13
2019-05-22T11:10:39.411Z,2.27
2019-05-22T11:15:44.067Z,2.10
2019-05-22T11:20:50.501Z,2.17
2019-05-22T11:25:53.905Z,3.35
2019-05-22T11:30:58.624Z,2.80
2019-05-22T11:36:05.013Z,2.72
2019-05-22T11:41:08.910Z,3.02
2019-05-22T11:46:13.011Z,4.03
2019-05-22T11:51:17.174Z,3.87
2019-05-22T11:56:21.066Z,3.65
2019-05-22T12:01:25.134Z,3.42
2019-05-22T12:06:34.010Z,3.42
2019-05-22T12:11:38.106Z,3.70
2019-05-22T12:16:42.628Z,3.85
2019-05-22T12:21:46.732Z,3.60
2019-05-22T12:26:52.392Z,4.83
2019-05-22T12:31:56.910Z,5.00
2019-05-22T12:37:01.162Z,4.37
2019-05-22T12:42:06.232Z,2.50
2019-05-22T12:47:11.874Z,3.35
2019-05-22T12:52:16.739Z,2.50
2019-05-22T12:57:23.317Z,2.45
2019-05-22T13:02:30.359Z,1.72
2019-05-22T13:07:35.203Z,1.90
2019-05-22T13:12:41.021Z,2.30
2019-05-22T13:17:50.712Z,3.33
2019-05-22T13:23:01.621Z,2.27
2019-05-22T13:28:07.267Z,1.60
2019-05-22T13:33:16.433Z,1.45
2019-05-22T13:38:23.785Z,1.20
2019-05-22T13:43:31.120Z,1.07
2019-05-22T13:48:43.024Z,1.13
2019-05-22T14:11:28.381Z,1.10
2019-05-22T14:34:03.430Z,1.02
2019-05-22T14:39:18.465Z,1.27
2019-05-22T14:44:25.038Z,2.70
2019-05-22T14:49:38.988Z,3.40
2019-05-22T14:54:56.355Z,3.37
2019-05-22T15:00:58.568Z,3.65
2019-05-22T15:33:18.812Z,3.05
2019-05-22T16:12:05.831Z,6.80
2019-05-22T18:32:11.634Z,4.03
2019-05-22T18:37:15.856Z,3.92
2019-05-22T18:42:20.515Z,4.00
2019-05-22T18:47:24.994Z,5.00
2019-05-22T18:52:40.706Z,3.58
2019-05-22T18:57:35.988Z,3.83
2019-05-22T19:02:40.948Z,3.98
2019-05-22T19:07:45.148Z,3.40
2019-05-22T19:12:49.759Z,3.52
2019-05-22T19:17:57.092Z,3.35
2019-05-22T19:23:01.877Z,4.00
2019-05-22T19:28:05.806Z,4.50
2019-05-22T19:33:09.986Z,4.28
2019-05-22T19:38:14.076Z,4.20
2019-05-22T19:43:18.247Z,4.50
2019-05-22T19:48:22.192Z,3.70
2019-05-22T19:53:26.555Z,3.40
2019-05-22T19:58:30.378Z,3.85
2019-05-22T20:03:34.630Z,3.35
2019-05-22T20:08:38.692Z,3.25
2019-05-22T20:13:43.716Z,2.77
2019-05-22T20:18:47.602Z,2.80
2019-05-22T20:23:51.496Z,2.70
2019-05-22T20:28:56.647Z,3.45
2019-05-22T20:34:00.645Z,3.67
2019-05-22T20:39:07.388Z,4.20
2019-05-22T20:44:12.943Z,4.58
2019-05-22T20:49:16.863Z,3.55
2019-05-22T20:54:20.637Z,4.58
2019-05-22T20:59:26.299Z,4.03
2019-05-22T21:04:30.483Z,5.15
2019-05-22T21:09:35.367Z,4.35
2019-05-22T21:14:39.449Z,4.05
2019-05-22T21:19:43.417Z,5.03
2019-05-22T21:24:48.222Z,5.10
2019-05-22T21:29:53.369Z,4.72
2019-05-22T21:34:58.309Z,4.35
2019-05-22T21:40:02.598Z,3.92
2019-05-22T21:45:09.656Z,4.45
2019-05-22T21:50:15.173Z,4.85
2019-05-22T21:55:20.793Z,3.80
2019-05-22T22:00:34.862Z,3.80
2019-05-22T22:05:39.510Z,4.20
2019-05-22T22:10:43.414Z,3.65
2019-05-22T22:15:49.072Z,3.30
2019-05-22T22:20:53.082Z,3.27
2019-05-22T22:25:57.221Z,3.40
2019-05-22T22:31:10.418Z,2.75
2019-05-22T22:36:15.380Z,2.27
2019-05-22T22:41:21.538Z,2.52
2019-05-22T22:46:41.542Z,2.12
2019-05-22T22:51:49.205Z,2.62
2019-05-22T22:56:53.543Z,2.83
2019-05-22T23:01:59.803Z,2.58
2019-05-22T23:07:05.902Z,2.45
2019-05-22T23:12:10.254Z,2.40
2019-05-22T23:17:14.167Z,2.20
2019-05-22T23:22:17.956Z,2.80
2019-05-22T23:27:23.393Z,2.92
2019-05-22T23:32:28.554Z,2.90
2019-05-22T23:37:32.882Z,2.50
2019-05-22T23:42:40.202Z,2.80
2019-05-22T23:47:58.912Z,2.67
2019-05-22T23:53:04.213Z,2.98
2019-05-22T23:58:10.106Z,2.70
